sensor_id;sensor_type;location;lat;lon;timestamp;P1;durP1;ratioP1;P2;durP2;ratioP2
30681;SDS011;17439;48.092;11.842;2023-04-03T00:00:16;8.45;;;3.95;;
30681;SDS011;17439;48.092;11.842;2023-04-03T00:02:43;7.35;;;4.57;;
30681;SDS011;17439;48.092;11.842;2023-04-03T00:05:10;7.70;;;4.47;;
30681;SDS011;17439;48.092;11.842;2023-04-03T00:07:37;5.78;;;3.65;;
30681;SDS011;17439;48.092;11.842;2023-04-03T00:10:03;6.72;;;3.80;;
30681;SDS011;17439;48.092;11.842;2023-04-03T00:12:31;7.43;;;3.93;;
30681;SDS011;17439;48.092;11.842;2023-04-03T00:14:57;6.90;;;4.30;;
30681;SDS011;17439;48.092;11.842;2023-04-03T00:17:24;8.18;;;4.03;;
30681;SDS011;17439;48.092;11.842;2023-04-03T00:19:51;6.33;;;3.80;;
30681;SDS011;17439;48.092;11.842;2023-04-03T00:22:18;6.07;;;3.88;;
30681;SDS011;17439;48.092;11.842;2023-04-03T00:24:44;6.93;;;4.13;;
30681;SDS011;17439;48.092;11.842;2023-04-03T00:27:11;9.57;;;4.45;;
30681;SDS011;17439;48.092;11.842;2023-04-03T00:29:38;5.43;;;3.83;;
30681;SDS011;17439;48.092;11.842;2023-04-03T00:32:05;9.68;;;4.82;;
30681;SDS011;17439;48.092;11.842;2023-04-03T00:34:31;8.73;;;4.95;;
30681;SDS011;17439;48.092;11.842;2023-04-03T00:36:58;7.68;;;4.55;;
30681;SDS011;17439;48.092;11.842;2023-04-03T00:39:25;9.52;;;6.10;;
30681;SDS011;17439;48.092;11.842;2023-04-03T00:41:52;8.20;;;5.37;;
30681;SDS011;17439;48.092;11.842;2023-04-03T00:45:21;7.90;;;4.63;;
30681;SDS011;17439;48.092;11.842;2023-04-03T00:47:10;9.00;;;4.15;;
30681;SDS011;17439;48.092;11.842;2023-04-03T00:49:39;7.50;;;4.15;;
30681;SDS011;17439;48.092;11.842;2023-04-03T00:52:08;7.38;;;4.05;;
30681;SDS011;17439;48.092;11.842;2023-04-03T00:54:37;6.30;;;4.10;;
30681;SDS011;17439;48.092;11.842;2023-04-03T00:57:07;7.05;;;4.13;;
30681;SDS011;17439;48.092;11.842;2023-04-03T00:59:35;7.38;;;4.47;;
30681;SDS011;17439;48.092;11.842;2023-04-03T01:02:06;15.65;;;4.05;;
30681;SDS011;17439;48.092;11.842;2023-04-03T01:04:36;7.32;;;3.67;;
30681;SDS011;17439;48.092;11.842;2023-04-03T01:07:09;8.13;;;4.22;;
30681;SDS011;17439;48.092;11.842;2023-04-03T01:09:39;9.30;;;4.68;;
30681;SDS011;17439;48.092;11.842;2023-04-03T01:12:13;7.35;;;4.43;;
30681;SDS011;17439;48.092;11.842;2023-04-03T01:14:48;6.97;;;3.75;;
30681;SDS011;17439;48.092;11.842;2023-04-03T01:17:33;5.65;;;3.70;;
30681;SDS011;17439;48.092;11.842;2023-04-03T01:20:31;9.65;;;5.90;;
30681;SDS011;17439;48.092;11.842;2023-04-03T01:25:45;9.30;;;4.95;;
30681;SDS011;17439;48.092;11.842;2023-04-03T01:28:18;6.38;;;3.85;;
30681;SDS011;17439;48.092;11.842;2023-04-03T01:33:55;7.27;;;3.70;;
30681;SDS011;17439;48.092;11.842;2023-04-03T01:36:27;7.07;;;4.35;;
30681;SDS011;17439;48.092;11.842;2023-04-03T01:38:56;9.25;;;4.47;;
30681;SDS011;17439;48.092;11.842;2023-04-03T01:41:24;8.48;;;4.40;;
30681;SDS011;17439;48.092;11.842;2023-04-03T01:43:57;11.30;;;6.25;;
30681;SDS011;17439;48.092;11.842;2023-04-03T01:46:23;7.78;;;4.45;;
30681;SDS011;17439;48.092;11.842;2023-04-03T01:48:50;7.25;;;4.00;;
30681;SDS011;17439;48.092;11.842;2023-04-03T01:51:17;7.15;;;4.50;;
30681;SDS011;17439;48.092;11.842;2023-04-03T01:53:43;5.68;;;3.60;;
30681;SDS011;17439;48.092;11.842;2023-04-03T01:56:10;6.93;;;3.90;;
30681;SDS011;17439;48.092;11.842;2023-04-03T01:58:37;6.63;;;3.95;;
30681;SDS011;17439;48.092;11.842;2023-04-03T02:01:04;7.63;;;4.47;;
30681;SDS011;17439;48.092;11.842;2023-04-03T02:03:31;8.93;;;4.45;;
30681;SDS011;17439;48.092;11.842;2023-04-03T02:05:59;8.65;;;4.65;;
30681;SDS011;17439;48.092;11.842;2023-04-03T02:08:26;8.45;;;4.35;;
30681;SDS011;17439;48.092;11.842;2023-04-03T02:10:52;7.05;;;4.35;;
30681;SDS011;17439;48.092;11.842;2023-04-03T02:13:19;5.85;;;3.65;;
30681;SDS011;17439;48.092;11.842;2023-04-03T02:15:46;5.80;;;3.63;;
30681;SDS011;17439;48.092;11.842;2023-04-03T02:18:16;9.30;;;4.53;;
30681;SDS011;17439;48.092;11.842;2023-04-03T02:20:43;8.02;;;4.65;;
30681;SDS011;17439;48.092;11.842;2023-04-03T02:23:10;6.47;;;3.88;;
30681;SDS011;17439;48.092;11.842;2023-04-03T02:25:37;8.60;;;4.60;;
30681;SDS011;17439;48.092;11.842;2023-04-03T02:28:04;6.55;;;4.30;;
30681;SDS011;17439;48.092;11.842;2023-04-03T02:30:31;5.87;;;3.90;;
30681;SDS011;17439;48.092;11.842;2023-04-03T02:32:58;6.45;;;4.07;;
30681;SDS011;17439;48.092;11.842;2023-04-03T02:35:25;8.10;;;4.32;;
30681;SDS011;17439;48.092;11.842;2023-04-03T02:37:55;6.03;;;3.95;;
30681;SDS011;17439;48.092;11.842;2023-04-03T02:40:22;5.95;;;4.03;;
30681;SDS011;17439;48.092;11.842;2023-04-03T02:42:49;7.38;;;3.78;;
30681;SDS011;17439;48.092;11.842;2023-04-03T02:45:17;7.63;;;4.03;;
30681;SDS011;17439;48.092;11.842;2023-04-03T02:47:44;6.72;;;4.18;;
30681;SDS011;17439;48.092;11.842;2023-04-03T02:50:10;6.43;;;4.05;;
30681;SDS011;17439;48.092;11.842;2023-04-03T02:52:37;6.35;;;4.20;;
30681;SDS011;17439;48.092;11.842;2023-04-03T02:55:04;9.00;;;4.15;;
30681;SDS011;17439;48.092;11.842;2023-04-03T02:57:31;7.07;;;4.07;;
30681;SDS011;17439;48.092;11.842;2023-04-03T02:59:58;6.45;;;3.35;;
30681;SDS011;17439;48.092;11.842;2023-04-03T03:02:25;10.10;;;5.63;;
30681;SDS011;17439;48.092;11.842;2023-04-03T03:04:51;8.07;;;5.00;;
30681;SDS011;17439;48.092;11.842;2023-04-03T03:07:18;9.25;;;4.90;;
30681;SDS011;17439;48.092;11.842;2023-04-03T03:09:45;9.35;;;4.88;;
30681;SDS011;17439;48.092;11.842;2023-04-03T03:12:11;7.13;;;3.95;;
30681;SDS011;17439;48.092;11.842;2023-04-03T03:14:38;8.10;;;4.40;;
30681;SDS011;17439;48.092;11.842;2023-04-03T03:17:05;6.43;;;4.05;;
30681;SDS011;17439;48.092;11.842;2023-04-03T03:19:32;6.57;;;4.28;;
30681;SDS011;17439;48.092;11.842;2023-04-03T03:21:59;9.88;;;4.68;;
30681;SDS011;17439;48.092;11.842;2023-04-03T03:24:26;8.10;;;4.70;;
30681;SDS011;17439;48.092;11.842;2023-04-03T03:26:52;7.95;;;4.20;;
30681;SDS011;17439;48.092;11.842;2023-04-03T03:29:19;9.38;;;4.63;;
30681;SDS011;17439;48.092;11.842;2023-04-03T03:31:46;8.10;;;4.47;;
30681;SDS011;17439;48.092;11.842;2023-04-03T03:34:13;5.15;;;3.53;;
30681;SDS011;17439;48.092;11.842;2023-04-03T03:36:40;5.22;;;3.55;;
30681;SDS011;17439;48.092;11.842;2023-04-03T03:39:07;6.72;;;4.35;;
30681;SDS011;17439;48.092;11.842;2023-04-03T03:41:33;9.35;;;4.85;;
30681;SDS011;17439;48.092;11.842;2023-04-03T03:44:01;6.80;;;4.40;;
30681;SDS011;17439;48.092;11.842;2023-04-03T03:46:30;6.28;;;4.43;;
30681;SDS011;17439;48.092;11.842;2023-04-03T03:48:57;10.60;;;4.82;;
30681;SDS011;17439;48.092;11.842;2023-04-03T03:51:23;6.90;;;3.90;;
30681;SDS011;17439;48.092;11.842;2023-04-03T03:53:50;8.27;;;4.13;;
30681;SDS011;17439;48.092;11.842;2023-04-03T03:56:18;11.13;;;4.03;;
30681;SDS011;17439;48.092;11.842;2023-04-03T03:58:45;12.10;;;5.18;;
30681;SDS011;17439;48.092;11.842;2023-04-03T04:01:12;8.02;;;4.35;;
30681;SDS011;17439;48.092;11.842;2023-04-03T04:03:44;6.93;;;3.67;;
30681;SDS011;17439;48.092;11.842;2023-04-03T04:06:15;6.95;;;3.63;;
30681;SDS011;17439;48.092;11.842;2023-04-03T04:08:42;8.27;;;3.77;;
30681;SDS011;17439;48.092;11.842;2023-04-03T04:11:11;7.63;;;4.40;;
30681;SDS011;17439;48.092;11.842;2023-04-03T04:13:39;8.52;;;4.70;;
30681;SDS011;17439;48.092;11.842;2023-04-03T04:16:06;6.97;;;4.00;;
30681;SDS011;17439;48.092;11.842;2023-04-03T04:18:33;7.22;;;4.05;;
30681;SDS011;17439;48.092;11.842;2023-04-03T04:21:00;5.95;;;3.33;;
30681;SDS011;17439;48.092;11.842;2023-04-03T04:23:28;6.78;;;3.90;;
30681;SDS011;17439;48.092;11.842;2023-04-03T04:25:57;6.50;;;3.95;;
30681;SDS011;17439;48.092;11.842;2023-04-03T04:28:25;4.90;;;3.05;;
30681;SDS011;17439;48.092;11.842;2023-04-03T04:30:54;5.43;;;3.40;;
30681;SDS011;17439;48.092;11.842;2023-04-03T04:33:23;6.53;;;2.78;;
30681;SDS011;17439;48.092;11.842;2023-04-03T04:35:50;11.52;;;5.05;;
30681;SDS011;17439;48.092;11.842;2023-04-03T04:38:19;12.65;;;5.35;;
30681;SDS011;17439;48.092;11.842;2023-04-03T04:40:47;7.07;;;4.20;;
30681;SDS011;17439;48.092;11.842;2023-04-03T04:43:14;11.90;;;6.38;;
30681;SDS011;17439;48.092;11.842;2023-04-03T04:45:45;9.70;;;4.32;;
30681;SDS011;17439;48.092;11.842;2023-04-03T04:48:16;8.15;;;4.35;;
30681;SDS011;17439;48.092;11.842;2023-04-03T04:50:42;6.90;;;3.97;;
30681;SDS011;17439;48.092;11.842;2023-04-03T04:53:09;7.07;;;4.25;;
30681;SDS011;17439;48.092;11.842;2023-04-03T04:55:36;18.90;;;8.73;;
30681;SDS011;17439;48.092;11.842;2023-04-03T04:58:03;9.90;;;5.10;;
30681;SDS011;17439;48.092;11.842;2023-04-03T05:00:30;9.60;;;3.70;;
30681;SDS011;17439;48.092;11.842;2023-04-03T05:02:57;9.98;;;4.38;;
30681;SDS011;17439;48.092;11.842;2023-04-03T05:05:23;9.45;;;4.00;;
30681;SDS011;17439;48.092;11.842;2023-04-03T05:07:51;26.58;;;9.93;;
30681;SDS011;17439;48.092;11.842;2023-04-03T05:10:17;37.80;;;12.98;;
30681;SDS011;17439;48.092;11.842;2023-04-03T05:12:45;62.25;;;22.73;;
30681;SDS011;17439;48.092;11.842;2023-04-03T05:15:15;37.53;;;16.58;;
30681;SDS011;17439;48.092;11.842;2023-04-03T05:17:43;24.25;;;10.55;;
30681;SDS011;17439;48.092;11.842;2023-04-03T05:20:12;37.55;;;17.23;;
30681;SDS011;17439;48.092;11.842;2023-04-03T05:22:41;14.98;;;6.82;;
30681;SDS011;17439;48.092;11.842;2023-04-03T05:25:08;9.40;;;5.47;;
30681;SDS011;17439;48.092;11.842;2023-04-03T05:27:39;6.93;;;3.55;;
30681;SDS011;17439;48.092;11.842;2023-04-03T05:30:07;5.95;;;3.60;;
30681;SDS011;17439;48.092;11.842;2023-04-03T05:32:36;7.55;;;4.25;;
30681;SDS011;17439;48.092;11.842;2023-04-03T05:35:18;7.10;;;4.05;;
30681;SDS011;17439;48.092;11.842;2023-04-03T05:37:47;7.13;;;3.72;;
30681;SDS011;17439;48.092;11.842;2023-04-03T05:40:15;5.28;;;3.22;;
30681;SDS011;17439;48.092;11.842;2023-04-03T05:42:46;5.22;;;3.17;;
30681;SDS011;17439;48.092;11.842;2023-04-03T05:45:14;8.00;;;5.57;;
30681;SDS011;17439;48.092;11.842;2023-04-03T05:47:41;8.70;;;3.83;;
30681;SDS011;17439;48.092;11.842;2023-04-03T05:50:08;6.25;;;3.53;;
30681;SDS011;17439;48.092;11.842;2023-04-03T05:52:36;5.68;;;3.63;;
30681;SDS011;17439;48.092;11.842;2023-04-03T05:55:06;5.53;;;3.13;;
30681;SDS011;17439;48.092;11.842;2023-04-03T05:57:34;5.00;;;3.15;;
30681;SDS011;17439;48.092;11.842;2023-04-03T06:00:03;6.82;;;3.25;;
30681;SDS011;17439;48.092;11.842;2023-04-03T06:02:39;6.13;;;3.30;;
30681;SDS011;17439;48.092;11.842;2023-04-03T06:05:09;6.22;;;2.88;;
30681;SDS011;17439;48.092;11.842;2023-04-03T06:07:36;5.78;;;3.75;;
30681;SDS011;17439;48.092;11.842;2023-04-03T06:10:03;7.55;;;3.20;;
30681;SDS011;17439;48.092;11.842;2023-04-03T06:12:30;5.45;;;3.05;;
30681;SDS011;17439;48.092;11.842;2023-04-03T06:14:57;8.75;;;3.60;;
30681;SDS011;17439;48.092;11.842;2023-04-03T06:17:24;8.00;;;3.40;;
30681;SDS011;17439;48.092;11.842;2023-04-03T06:19:52;5.78;;;3.58;;
30681;SDS011;17439;48.092;11.842;2023-04-03T06:22:19;3.47;;;2.40;;
30681;SDS011;17439;48.092;11.842;2023-04-03T06:24:45;9.10;;;2.38;;
30681;SDS011;17439;48.092;11.842;2023-04-03T06:27:12;4.47;;;3.08;;
30681;SDS011;17439;48.092;11.842;2023-04-03T06:29:39;6.78;;;2.88;;
30681;SDS011;17439;48.092;11.842;2023-04-03T06:32:05;4.45;;;2.97;;
30681;SDS011;17439;48.092;11.842;2023-04-03T06:34:32;6.90;;;3.40;;
30681;SDS011;17439;48.092;11.842;2023-04-03T06:36:59;6.47;;;2.72;;
30681;SDS011;17439;48.092;11.842;2023-04-03T06:39:25;6.47;;;3.40;;
30681;SDS011;17439;48.092;11.842;2023-04-03T06:41:52;5.00;;;2.85;;
30681;SDS011;17439;48.092;11.842;2023-04-03T06:44:27;9.20;;;4.18;;
30681;SDS011;17439;48.092;11.842;2023-04-03T06:46:53;5.68;;;2.65;;
30681;SDS011;17439;48.092;11.842;2023-04-03T06:49:20;5.82;;;3.13;;
30681;SDS011;17439;48.092;11.842;2023-04-03T06:51:47;4.93;;;2.80;;
30681;SDS011;17439;48.092;11.842;2023-04-03T06:54:13;6.93;;;2.90;;
30681;SDS011;17439;48.092;11.842;2023-04-03T06:56:40;6.13;;;3.28;;
30681;SDS011;17439;48.092;11.842;2023-04-03T06:59:07;4.85;;;3.13;;
30681;SDS011;17439;48.092;11.842;2023-04-03T07:01:33;7.22;;;2.85;;
30681;SDS011;17439;48.092;11.842;2023-04-03T07:04:00;5.20;;;2.75;;
30681;SDS011;17439;48.092;11.842;2023-04-03T07:06:27;6.88;;;3.55;;
30681;SDS011;17439;48.092;11.842;2023-04-03T07:08:54;4.55;;;2.80;;
30681;SDS011;17439;48.092;11.842;2023-04-03T07:11:21;5.07;;;3.20;;
30681;SDS011;17439;48.092;11.842;2023-04-03T07:13:48;5.28;;;2.55;;
30681;SDS011;17439;48.092;11.842;2023-04-03T07:16:15;3.15;;;2.05;;
30681;SDS011;17439;48.092;11.842;2023-04-03T07:18:44;5.35;;;2.28;;
30681;SDS011;17439;48.092;11.842;2023-04-03T07:21:12;4.53;;;2.63;;
30681;SDS011;17439;48.092;11.842;2023-04-03T07:23:39;4.20;;;2.08;;
30681;SDS011;17439;48.092;11.842;2023-04-03T07:26:05;4.85;;;2.80;;
30681;SDS011;17439;48.092;11.842;2023-04-03T07:28:32;5.88;;;2.47;;
30681;SDS011;17439;48.092;11.842;2023-04-03T07:31:04;3.42;;;2.40;;
30681;SDS011;17439;48.092;11.842;2023-04-03T07:33:32;6.85;;;2.63;;
30681;SDS011;17439;48.092;11.842;2023-04-03T07:35:59;4.75;;;3.22;;
30681;SDS011;17439;48.092;11.842;2023-04-03T07:38:26;5.30;;;3.25;;
30681;SDS011;17439;48.092;11.842;2023-04-03T07:40:52;4.00;;;2.35;;
30681;SDS011;17439;48.092;11.842;2023-04-03T07:43:19;5.15;;;3.25;;
30681;SDS011;17439;48.092;11.842;2023-04-03T07:45:48;6.82;;;3.15;;
30681;SDS011;17439;48.092;11.842;2023-04-03T07:48:16;5.00;;;2.72;;
30681;SDS011;17439;48.092;11.842;2023-04-03T07:50:43;6.07;;;2.88;;
30681;SDS011;17439;48.092;11.842;2023-04-03T07:53:10;6.70;;;3.50;;
30681;SDS011;17439;48.092;11.842;2023-04-03T07:55:37;6.85;;;3.95;;
30681;SDS011;17439;48.092;11.842;2023-04-03T07:58:04;5.82;;;3.13;;
30681;SDS011;17439;48.092;11.842;2023-04-03T08:00:31;5.40;;;3.15;;
30681;SDS011;17439;48.092;11.842;2023-04-03T08:02:57;6.85;;;3.42;;
30681;SDS011;17439;48.092;11.842;2023-04-03T08:05:24;4.55;;;2.78;;
30681;SDS011;17439;48.092;11.842;2023-04-03T08:07:51;4.22;;;2.90;;
30681;SDS011;17439;48.092;11.842;2023-04-03T08:10:17;6.38;;;3.15;;
30681;SDS011;17439;48.092;11.842;2023-04-03T08:12:47;6.15;;;2.70;;
30681;SDS011;17439;48.092;11.842;2023-04-03T08:15:14;8.82;;;3.85;;
30681;SDS011;17439;48.092;11.842;2023-04-03T08:17:41;5.40;;;3.10;;
30681;SDS011;17439;48.092;11.842;2023-04-03T08:20:09;5.18;;;3.40;;
30681;SDS011;17439;48.092;11.842;2023-04-03T08:22:36;10.82;;;3.97;;
30681;SDS011;17439;48.092;11.842;2023-04-03T08:25:03;6.63;;;3.70;;
30681;SDS011;17439;48.092;11.842;2023-04-03T08:27:30;7.45;;;3.60;;
30681;SDS011;17439;48.092;11.842;2023-04-03T08:29:59;6.20;;;3.25;;
30681;SDS011;17439;48.092;11.842;2023-04-03T08:32:26;5.20;;;3.03;;
30681;SDS011;17439;48.092;11.842;2023-04-03T08:34:53;12.75;;;3.88;;
30681;SDS011;17439;48.092;11.842;2023-04-03T08:37:19;4.88;;;2.78;;
30681;SDS011;17439;48.092;11.842;2023-04-03T08:39:46;7.28;;;2.88;;
30681;SDS011;17439;48.092;11.842;2023-04-03T08:42:19;5.75;;;2.75;;
30681;SDS011;17439;48.092;11.842;2023-04-03T08:45:01;5.05;;;3.13;;
30681;SDS011;17439;48.092;11.842;2023-04-03T08:47:38;5.88;;;3.10;;
30681;SDS011;17439;48.092;11.842;2023-04-03T08:50:20;6.72;;;3.22;;
30681;SDS011;17439;48.092;11.842;2023-04-03T08:52:52;5.35;;;2.80;;
30681;SDS011;17439;48.092;11.842;2023-04-03T08:55:26;5.45;;;2.33;;
30681;SDS011;17439;48.092;11.842;2023-04-03T08:58:05;5.18;;;3.00;;
30681;SDS011;17439;48.092;11.842;2023-04-03T09:00:40;5.80;;;3.10;;
30681;SDS011;17439;48.092;11.842;2023-04-03T09:03:14;5.43;;;3.20;;
30681;SDS011;17439;48.092;11.842;2023-04-03T09:05:45;7.20;;;3.15;;
30681;SDS011;17439;48.092;11.842;2023-04-03T09:08:24;6.57;;;2.92;;
30681;SDS011;17439;48.092;11.842;2023-04-03T09:13:48;6.55;;;3.05;;
30681;SDS011;17439;48.092;11.842;2023-04-03T09:22:17;4.13;;;2.58;;
30681;SDS011;17439;48.092;11.842;2023-04-03T09:24:48;4.90;;;2.53;;
30681;SDS011;17439;48.092;11.842;2023-04-03T09:27:22;7.82;;;2.80;;
30681;SDS011;17439;48.092;11.842;2023-04-03T09:29:48;6.63;;;2.88;;
30681;SDS011;17439;48.092;11.842;2023-04-03T09:32:31;6.65;;;3.40;;
30681;SDS011;17439;48.092;11.842;2023-04-03T09:35:04;5.75;;;3.63;;
30681;SDS011;17439;48.092;11.842;2023-04-03T09:37:51;5.53;;;3.20;;
30681;SDS011;17439;48.092;11.842;2023-04-03T09:42:53;5.15;;;3.20;;
30681;SDS011;17439;48.092;11.842;2023-04-03T09:45:28;5.60;;;2.85;;
30681;SDS011;17439;48.092;11.842;2023-04-03T09:55:54;7.40;;;3.85;;
30681;SDS011;17439;48.092;11.842;2023-04-03T09:58:25;36.15;;;13.68;;
30681;SDS011;17439;48.092;11.842;2023-04-03T10:01:36;16.13;;;5.88;;
30681;SDS011;17439;48.092;11.842;2023-04-03T10:04:07;5.05;;;3.28;;
30681;SDS011;17439;48.092;11.842;2023-04-03T10:06:38;9.55;;;4.53;;
30681;SDS011;17439;48.092;11.842;2023-04-03T10:11:57;8.43;;;3.75;;
30681;SDS011;17439;48.092;11.842;2023-04-03T10:14:29;10.60;;;5.25;;
30681;SDS011;17439;48.092;11.842;2023-04-03T10:17:01;14.70;;;5.18;;
30681;SDS011;17439;48.092;11.842;2023-04-03T10:19:40;8.60;;;3.95;;
30681;SDS011;17439;48.092;11.842;2023-04-03T10:22:13;6.88;;;3.33;;
30681;SDS011;17439;48.092;11.842;2023-04-03T10:24:58;6.15;;;3.08;;
30681;SDS011;17439;48.092;11.842;2023-04-03T10:33:05;2.47;;;1.77;;
30681;SDS011;17439;48.092;11.842;2023-04-03T10:35:49;2.75;;;2.00;;
30681;SDS011;17439;48.092;11.842;2023-04-03T10:44:20;4.10;;;2.30;;
30681;SDS011;17439;48.092;11.842;2023-04-03T10:53:41;5.65;;;2.78;;
30681;SDS011;17439;48.092;11.842;2023-04-03T10:55:58;5.07;;;3.08;;
30681;SDS011;17439;48.092;11.842;2023-04-03T10:58:38;5.65;;;2.78;;
30681;SDS011;17439;48.092;11.842;2023-04-03T11:01:11;3.75;;;2.67;;
30681;SDS011;17439;48.092;11.842;2023-04-03T11:03:47;8.25;;;3.33;;
30681;SDS011;17439;48.092;11.842;2023-04-03T11:06:17;3.92;;;2.70;;
30681;SDS011;17439;48.092;11.842;2023-04-03T11:08:49;4.50;;;2.83;;
30681;SDS011;17439;48.092;11.842;2023-04-03T11:11:33;7.63;;;2.95;;
30681;SDS011;17439;48.092;11.842;2023-04-03T11:14:03;4.30;;;2.90;;
30681;SDS011;17439;48.092;11.842;2023-04-03T11:16:39;4.22;;;2.63;;
30681;SDS011;17439;48.092;11.842;2023-04-03T11:19:20;7.80;;;3.25;;
30681;SDS011;17439;48.092;11.842;2023-04-03T11:21:56;5.88;;;2.83;;
30681;SDS011;17439;48.092;11.842;2023-04-03T11:24:29;4.68;;;2.47;;
30681;SDS011;17439;48.092;11.842;2023-04-03T11:26:59;4.63;;;2.42;;
30681;SDS011;17439;48.092;11.842;2023-04-03T11:29:32;4.43;;;1.95;;
30681;SDS011;17439;48.092;11.842;2023-04-03T11:34:46;3.65;;;1.67;;
30681;SDS011;17439;48.092;11.842;2023-04-03T11:40:01;4.07;;;1.70;;
30681;SDS011;17439;48.092;11.842;2023-04-03T11:42:38;5.63;;;2.38;;
30681;SDS011;17439;48.092;11.842;2023-04-03T11:45:22;8.98;;;1.95;;
30681;SDS011;17439;48.092;11.842;2023-04-03T11:47:56;3.80;;;1.65;;
30681;SDS011;17439;48.092;11.842;2023-04-03T11:50:44;2.85;;;1.98;;
30681;SDS011;17439;48.092;11.842;2023-04-03T11:58:15;3.22;;;1.92;;
30681;SDS011;17439;48.092;11.842;2023-04-03T12:16:21;4.65;;;1.95;;
30681;SDS011;17439;48.092;11.842;2023-04-03T12:21:16;4.55;;;2.42;;
30681;SDS011;17439;48.092;11.842;2023-04-03T12:23:57;3.25;;;1.40;;
30681;SDS011;17439;48.092;11.842;2023-04-03T12:26:47;3.92;;;2.10;;
30681;SDS011;17439;48.092;11.842;2023-04-03T12:29:21;3.63;;;1.90;;
30681;SDS011;17439;48.092;11.842;2023-04-03T12:32:04;5.15;;;1.70;;
30681;SDS011;17439;48.092;11.842;2023-04-03T12:40:16;1.73;;;1.30;;
30681;SDS011;17439;48.092;11.842;2023-04-03T12:48:12;4.28;;;1.60;;
30681;SDS011;17439;48.092;11.842;2023-04-03T12:50:42;3.38;;;1.38;;
30681;SDS011;17439;48.092;11.842;2023-04-03T12:53:13;4.35;;;1.33;;
30681;SDS011;17439;48.092;11.842;2023-04-03T12:55:44;6.53;;;1.90;;
30681;SDS011;17439;48.092;11.842;2023-04-03T12:58:44;4.68;;;1.45;;
30681;SDS011;17439;48.092;11.842;2023-04-03T13:01:09;2.53;;;1.40;;
30681;SDS011;17439;48.092;11.842;2023-04-03T13:03:39;2.75;;;1.55;;
30681;SDS011;17439;48.092;11.842;2023-04-03T13:06:18;5.35;;;1.80;;
30681;SDS011;17439;48.092;11.842;2023-04-03T13:08:54;4.28;;;1.35;;
30681;SDS011;17439;48.092;11.842;2023-04-03T13:11:23;6.03;;;2.47;;
30681;SDS011;17439;48.092;11.842;2023-04-03T13:13:58;5.00;;;2.00;;
30681;SDS011;17439;48.092;11.842;2023-04-03T13:16:26;4.88;;;2.00;;
30681;SDS011;17439;48.092;11.842;2023-04-03T13:18:54;3.73;;;1.67;;
30681;SDS011;17439;48.092;11.842;2023-04-03T13:21:23;4.40;;;1.90;;
30681;SDS011;17439;48.092;11.842;2023-04-03T13:23:54;2.92;;;1.25;;
30681;SDS011;17439;48.092;11.842;2023-04-03T13:26:39;2.57;;;1.87;;
30681;SDS011;17439;48.092;11.842;2023-04-03T13:29:07;3.17;;;1.83;;
30681;SDS011;17439;48.092;11.842;2023-04-03T13:31:57;4.00;;;2.30;;
30681;SDS011;17439;48.092;11.842;2023-04-03T13:34:26;2.92;;;1.45;;
30681;SDS011;17439;48.092;11.842;2023-04-03T13:37:03;4.20;;;1.10;;
30681;SDS011;17439;48.092;11.842;2023-04-03T13:39:32;3.03;;;1.33;;
30681;SDS011;17439;48.092;11.842;2023-04-03T13:42:16;4.95;;;1.17;;
30681;SDS011;17439;48.092;11.842;2023-04-03T13:44:48;4.28;;;2.10;;
30681;SDS011;17439;48.092;11.842;2023-04-03T13:49:45;1.98;;;1.40;;
30681;SDS011;17439;48.092;11.842;2023-04-03T13:52:29;3.30;;;1.40;;
30681;SDS011;17439;48.092;11.842;2023-04-03T13:55:02;2.28;;;1.25;;
30681;SDS011;17439;48.092;11.842;2023-04-03T13:57:58;6.10;;;2.22;;
30681;SDS011;17439;48.092;11.842;2023-04-03T14:06:08;2.17;;;1.25;;
30681;SDS011;17439;48.092;11.842;2023-04-03T14:08:38;3.33;;;1.58;;
30681;SDS011;17439;48.092;11.842;2023-04-03T14:11:13;2.40;;;0.80;;
30681;SDS011;17439;48.092;11.842;2023-04-03T14:13:42;1.70;;;0.90;;
30681;SDS011;17439;48.092;11.842;2023-04-03T14:18:42;2.30;;;1.02;;
30681;SDS011;17439;48.092;11.842;2023-04-03T14:21:11;3.28;;;1.40;;
30681;SDS011;17439;48.092;11.842;2023-04-03T14:23:39;7.07;;;2.20;;
30681;SDS011;17439;48.092;11.842;2023-04-03T14:26:12;4.00;;;1.73;;
30681;SDS011;17439;48.092;11.842;2023-04-03T14:28:48;2.55;;;1.00;;
30681;SDS011;17439;48.092;11.842;2023-04-03T14:31:17;4.53;;;0.98;;
30681;SDS011;17439;48.092;11.842;2023-04-03T14:33:44;3.60;;;0.98;;
30681;SDS011;17439;48.092;11.842;2023-04-03T14:36:22;2.15;;;1.00;;
30681;SDS011;17439;48.092;11.842;2023-04-03T14:38:51;1.13;;;0.85;;
30681;SDS011;17439;48.092;11.842;2023-04-03T14:41:19;4.53;;;0.98;;
30681;SDS011;17439;48.092;11.842;2023-04-03T14:43:48;2.00;;;0.85;;
30681;SDS011;17439;48.092;11.842;2023-04-03T14:46:37;2.65;;;1.17;;
30681;SDS011;17439;48.092;11.842;2023-04-03T14:49:23;1.73;;;0.80;;
30681;SDS011;17439;48.092;11.842;2023-04-03T14:51:51;1.85;;;0.95;;
30681;SDS011;17439;48.092;11.842;2023-04-03T14:54:19;2.97;;;0.77;;
30681;SDS011;17439;48.092;11.842;2023-04-03T14:56:48;1.42;;;0.77;;
30681;SDS011;17439;48.092;11.842;2023-04-03T14:59:15;1.83;;;1.00;;
30681;SDS011;17439;48.092;11.842;2023-04-03T15:01:41;1.55;;;1.00;;
30681;SDS011;17439;48.092;11.842;2023-04-03T15:04:18;1.20;;;0.75;;
30681;SDS011;17439;48.092;11.842;2023-04-03T15:06:47;1.35;;;0.63;;
30681;SDS011;17439;48.092;11.842;2023-04-03T15:11:45;1.48;;;0.88;;
30681;SDS011;17439;48.092;11.842;2023-04-03T15:14:12;7.18;;;1.30;;
30681;SDS011;17439;48.092;11.842;2023-04-03T15:16:49;2.47;;;1.13;;
30681;SDS011;17439;48.092;11.842;2023-04-03T15:19:16;1.63;;;0.90;;
30681;SDS011;17439;48.092;11.842;2023-04-03T15:21:43;2.08;;;0.80;;
30681;SDS011;17439;48.092;11.842;2023-04-03T15:24:09;1.35;;;0.70;;
30681;SDS011;17439;48.092;11.842;2023-04-03T15:26:36;1.45;;;0.90;;
30681;SDS011;17439;48.092;11.842;2023-04-03T15:29:04;1.92;;;0.80;;
30681;SDS011;17439;48.092;11.842;2023-04-03T15:31:31;3.63;;;0.90;;
30681;SDS011;17439;48.092;11.842;2023-04-03T15:33:58;1.10;;;0.90;;
30681;SDS011;17439;48.092;11.842;2023-04-03T15:36:25;2.63;;;1.00;;
30681;SDS011;17439;48.092;11.842;2023-04-03T15:39:00;19.90;;;7.03;;
30681;SDS011;17439;48.092;11.842;2023-04-03T15:41:26;61.38;;;18.38;;
30681;SDS011;17439;48.092;11.842;2023-04-03T15:43:53;49.35;;;14.88;;
30681;SDS011;17439;48.092;11.842;2023-04-03T15:46:20;23.23;;;8.35;;
30681;SDS011;17439;48.092;11.842;2023-04-03T15:48:46;3.95;;;1.55;;
30681;SDS011;17439;48.092;11.842;2023-04-03T15:51:13;2.65;;;1.58;;
30681;SDS011;17439;48.092;11.842;2023-04-03T15:53:40;4.22;;;2.08;;
30681;SDS011;17439;48.092;11.842;2023-04-03T15:56:07;10.23;;;3.00;;
30681;SDS011;17439;48.092;11.842;2023-04-03T15:58:33;12.40;;;4.18;;
30681;SDS011;17439;48.092;11.842;2023-04-03T16:01:00;8.80;;;2.75;;
30681;SDS011;17439;48.092;11.842;2023-04-03T16:03:28;11.65;;;3.78;;
30681;SDS011;17439;48.092;11.842;2023-04-03T16:05:56;7.45;;;2.75;;
30681;SDS011;17439;48.092;11.842;2023-04-03T16:08:23;2.95;;;1.30;;
30681;SDS011;17439;48.092;11.842;2023-04-03T16:10:49;4.15;;;1.25;;
30681;SDS011;17439;48.092;11.842;2023-04-03T16:13:16;3.40;;;1.45;;
30681;SDS011;17439;48.092;11.842;2023-04-03T16:15:43;2.97;;;1.15;;
30681;SDS011;17439;48.092;11.842;2023-04-03T16:18:09;3.40;;;1.20;;
30681;SDS011;17439;48.092;11.842;2023-04-03T16:20:36;1.48;;;0.82;;
30681;SDS011;17439;48.092;11.842;2023-04-03T16:23:04;3.97;;;0.70;;
30681;SDS011;17439;48.092;11.842;2023-04-03T16:25:31;1.48;;;0.75;;
30681;SDS011;17439;48.092;11.842;2023-04-03T16:27:57;1.30;;;0.68;;